Terminal Aerodrome Forecast
Issued by NWS

Home | Current Version | Previous Version | Graphics & Text | Print | Product List | Glossary Off
Versions: 1 2 3 4 5 6 7 8 9 10 11 12 13 14 15 16 17 18 19 20 21 22 23 24 25 26 27 28 29 30 31 32 33 34

000
FTUS43 KDDC 300520
TAFGCK
TAF
KGCK 300520Z 3006/0106 32011KT P6SM OVC007
     FM301200 31010KT P6SM BKN010
     FM301500 33015G25KT P6SM BKN040
     FM010000 34012KT P6SM SCT040=

USA.gov is the U.S. government's official web portal to all federal, state and local government web resources and services.